createdAt,value
2023-01-09T00:00:08.357Z,1.90
2023-01-09T00:02:40.707Z,2.30
2023-01-09T00:05:12.558Z,2.30
2023-01-09T00:07:40.988Z,1.77
2023-01-09T00:10:11.639Z,1.77
2023-01-09T00:12:40.270Z,1.00
2023-01-09T00:15:10.291Z,1.00
2023-01-09T00:17:38.832Z,1.17
2023-01-09T00:20:09.992Z,0.93
2023-01-09T00:22:39.691Z,0.43
2023-01-09T00:25:08.929Z,0.70
2023-01-09T00:27:37.994Z,1.10
2023-01-09T00:30:07.555Z,1.10
2023-01-09T00:32:36.062Z,0.80
2023-01-09T00:35:04.641Z,1.20
2023-01-09T00:37:33.105Z,0.73
2023-01-09T00:40:02.811Z,0.57
2023-01-09T00:42:36.579Z,1.00
2023-01-09T00:45:09.277Z,0.53
2023-01-09T00:47:42.879Z,0.77
2023-01-09T00:50:15.889Z,0.63
2023-01-09T00:52:45.200Z,1.23
2023-01-09T00:55:16.353Z,0.50
2023-01-09T00:57:44.911Z,1.30
2023-01-09T01:00:14.257Z,0.70
2023-01-09T01:02:43.105Z,0.60
2023-01-09T01:05:29.119Z,0.70
2023-01-09T01:07:57.637Z,0.57
2023-01-09T01:10:28.400Z,0.97
2023-01-09T01:12:57.126Z,0.80
2023-01-09T01:15:29.477Z,1.00
2023-01-09T01:17:58.076Z,0.80
2023-01-09T01:20:26.534Z,0.80
2023-01-09T01:22:54.933Z,1.20
2023-01-09T01:25:23.599Z,1.00
2023-01-09T01:27:53.965Z,1.03
2023-01-09T01:30:22.506Z,1.13
2023-01-09T01:32:50.930Z,1.20
2023-01-09T01:35:19.516Z,0.80
2023-01-09T01:37:49.833Z,1.03
2023-01-09T01:40:18.561Z,0.70
2023-01-09T01:42:48.015Z,1.03
2023-01-09T01:45:21.286Z,0.97
2023-01-09T01:47:55.907Z,1.03
2023-01-09T01:50:31.002Z,0.90
2023-01-09T01:53:06.980Z,1.00
2023-01-09T01:55:37.905Z,1.00
2023-01-09T01:58:10.087Z,1.23
2023-01-09T02:00:43.773Z,0.90
2023-01-09T02:03:16.831Z,0.93
2023-01-09T02:05:45.570Z,1.17
2023-01-09T02:08:14.721Z,1.30
2023-01-09T02:10:43.910Z,1.10
2023-01-09T02:13:16.498Z,0.83
2023-01-09T02:15:57.604Z,1.00
2023-01-09T02:18:48.537Z,1.17
2023-01-09T02:21:26.392Z,1.30
2023-01-09T02:24:12.295Z,1.03
2023-01-09T02:27:01.274Z,1.30
2023-01-09T02:30:11.699Z,1.50
2023-01-09T02:32:59.709Z,1.47
2023-01-09T02:35:42.290Z,1.60
2023-01-09T02:38:18.618Z,1.70
2023-01-09T02:40:54.951Z,1.17
2023-01-09T02:43:24.787Z,1.70
2023-01-09T02:45:53.581Z,2.33
2023-01-09T02:48:23.417Z,1.73
2023-01-09T02:51:02.448Z,1.80
2023-01-09T02:54:13.056Z,1.40
2023-01-09T02:57:09.700Z,2.00
2023-01-09T02:59:54.119Z,1.47
2023-01-09T03:02:38.427Z,1.40
2023-01-09T03:05:14.287Z,2.27
2023-01-09T03:07:49.664Z,2.17
2023-01-09T03:10:22.544Z,2.10
2023-01-09T03:12:54.724Z,2.27
2023-01-09T03:15:28.236Z,2.80
2023-01-09T03:17:58.439Z,2.93
2023-01-09T03:20:28.961Z,2.77
2023-01-09T03:22:59.047Z,3.17
2023-01-09T03:25:29.520Z,2.77
2023-01-09T03:28:00.211Z,2.57
2023-01-09T03:30:30.633Z,3.20
2023-01-09T03:32:59.453Z,2.67
2023-01-09T03:35:29.918Z,2.70
2023-01-09T03:37:59.166Z,2.27
2023-01-09T03:40:27.705Z,2.57
2023-01-09T03:42:56.109Z,2.33
2023-01-09T03:45:24.760Z,2.00
2023-01-09T03:47:53.329Z,1.90
2023-01-09T03:50:21.853Z,1.93
2023-01-09T03:52:52.368Z,2.10
2023-01-09T03:55:20.882Z,2.03
2023-01-09T03:57:50.342Z,2.40
2023-01-09T04:00:19.711Z,2.33
2023-01-09T04:02:48.656Z,2.00
2023-01-09T04:05:17.072Z,1.73
2023-01-09T04:07:46.359Z,2.10
2023-01-09T04:10:17.146Z,2.43
2023-01-09T04:12:45.548Z,2.30
2023-01-09T04:15:14.014Z,2.30
2023-01-09T04:17:42.662Z,2.50
2023-01-09T04:20:12.131Z,2.57
2023-01-09T04:22:41.324Z,2.30
2023-01-09T04:25:10.853Z,2.23
2023-01-09T04:27:40.648Z,2.77
2023-01-09T04:30:10.410Z,2.37
2023-01-09T04:32:38.951Z,2.10
2023-01-09T04:35:08.796Z,2.30
2023-01-09T04:37:37.343Z,2.80
2023-01-09T04:40:08.234Z,2.27
2023-01-09T04:42:36.873Z,2.13
2023-01-09T04:45:09.496Z,2.43
2023-01-09T04:47:38.012Z,2.30
2023-01-09T04:50:07.520Z,2.07
2023-01-09T04:52:37.600Z,2.13
2023-01-09T04:55:08.722Z,1.80
2023-01-09T04:57:38.021Z,2.17
2023-01-09T05:00:12.350Z,2.00
2023-01-09T05:02:42.052Z,2.13
2023-01-09T05:05:12.150Z,2.57
2023-01-09T05:07:41.231Z,2.43
2023-01-09T05:10:11.741Z,3.10
2023-01-09T05:12:40.524Z,2.67
2023-01-09T05:15:11.242Z,2.07
2023-01-09T05:17:39.713Z,2.20
2023-01-09T05:20:09.036Z,2.10
2023-01-09T05:22:37.513Z,1.60
2023-01-09T05:25:06.583Z,1.60
2023-01-09T05:27:35.205Z,1.97
2023-01-09T05:30:03.788Z,2.50
2023-01-09T05:32:33.789Z,2.33
2023-01-09T05:35:02.243Z,1.87
2023-01-09T05:37:30.594Z,1.93
2023-01-09T05:39:59.080Z,2.00
2023-01-09T05:42:27.515Z,1.90
2023-01-09T05:44:56.019Z,1.83
2023-01-09T05:47:24.455Z,2.77
2023-01-09T05:49:56.375Z,1.80
2023-01-09T05:52:25.057Z,1.87
2023-01-09T05:54:53.919Z,2.20
2023-01-09T05:57:22.302Z,1.80
2023-01-09T05:59:50.763Z,2.20
2023-01-09T06:02:19.289Z,1.53
2023-01-09T06:04:48.012Z,1.83
2023-01-09T06:07:21.579Z,1.40
2023-01-09T06:09:51.282Z,1.67
2023-01-09T06:12:19.949Z,1.67
2023-01-09T06:14:48.679Z,1.77
2023-01-09T06:17:17.301Z,1.97
2023-01-09T06:19:45.713Z,1.63
2023-01-09T06:22:14.156Z,2.37
2023-01-09T06:24:44.077Z,1.87
2023-01-09T06:27:13.199Z,1.93
2023-01-09T06:29:42.010Z,2.13
2023-01-09T06:32:10.610Z,2.80
2023-01-09T06:34:39.028Z,2.53
2023-01-09T06:37:07.354Z,2.40
2023-01-09T06:39:35.735Z,2.43
2023-01-09T06:42:06.411Z,1.67
2023-01-09T06:44:36.822Z,2.23
2023-01-09T06:47:05.875Z,2.00
2023-01-09T06:49:34.384Z,2.00
2023-01-09T06:52:05.871Z,2.20
2023-01-09T06:54:34.488Z,2.10
2023-01-09T06:57:02.975Z,2.23
2023-01-09T06:59:32.900Z,2.60
2023-01-09T07:02:01.529Z,1.97
2023-01-09T07:04:30.027Z,2.30
2023-01-09T07:06:58.483Z,1.97
2023-01-09T07:09:26.892Z,1.50
2023-01-09T07:11:55.573Z,2.43
2023-01-09T07:14:23.969Z,2.23
2023-01-09T07:16:53.798Z,2.73
2023-01-09T07:19:22.182Z,2.97
2023-01-09T07:21:50.606Z,2.13
2023-01-09T07:24:19.020Z,2.43
2023-01-09T07:26:47.631Z,2.03
2023-01-09T07:29:16.097Z,2.70
2023-01-09T07:31:49.926Z,2.73
2023-01-09T07:34:21.924Z,2.20
2023-01-09T07:36:51.368Z,4.00
2023-01-09T07:39:19.929Z,2.30
2023-01-09T07:41:48.423Z,2.17
2023-01-09T07:44:17.904Z,2.30
2023-01-09T07:46:46.351Z,2.20
2023-01-09T07:49:14.776Z,1.97
2023-01-09T07:51:45.805Z,2.10
2023-01-09T07:54:14.372Z,2.67
2023-01-09T07:56:42.947Z,2.20
2023-01-09T07:59:11.630Z,2.50
2023-01-09T08:01:40.474Z,2.57
2023-01-09T08:04:09.076Z,2.53
2023-01-09T08:06:37.563Z,2.57
2023-01-09T08:09:07.398Z,2.60
2023-01-09T08:11:35.866Z,2.13
2023-01-09T08:14:04.485Z,3.13
2023-01-09T08:16:33.143Z,2.07
2023-01-09T08:19:01.715Z,2.40
2023-01-09T08:21:30.267Z,2.20
2023-01-09T08:23:58.775Z,1.80
2023-01-09T08:26:28.712Z,2.47
2023-01-09T08:29:15.644Z,1.80
2023-01-09T08:33:04.290Z,2.07
2023-01-09T08:36:16.739Z,2.03
2023-01-09T08:43:46.264Z,2.13
2023-01-09T08:46:38.695Z,2.33
2023-01-09T08:49:07.248Z,2.60
2023-01-09T08:51:35.771Z,2.00
2023-01-09T08:54:04.396Z,2.57
2023-01-09T08:56:36.979Z,1.47
2023-01-09T08:59:28.516Z,2.50
2023-01-09T09:02:07.042Z,2.20
2023-01-09T09:05:41.875Z,1.93
2023-01-09T09:11:48.972Z,1.50
2023-01-09T09:14:46.940Z,2.40
2023-01-09T09:17:15.732Z,2.17
2023-01-09T09:19:44.429Z,1.80
2023-01-09T09:22:13.044Z,1.60
2023-01-09T09:24:41.602Z,1.90
2023-01-09T09:27:10.262Z,1.90
2023-01-09T09:29:40.345Z,1.80
2023-01-09T09:32:08.888Z,2.00
2023-01-09T09:34:37.590Z,2.10
2023-01-09T09:37:06.432Z,1.93
2023-01-09T09:39:35.202Z,1.80
2023-01-09T09:42:49.686Z,1.63
2023-01-09T09:45:29.938Z,1.73
2023-01-09T09:48:09.894Z,1.53
2023-01-09T09:51:04.241Z,2.70
2023-01-09T09:53:38.028Z,2.20
2023-01-09T09:56:07.367Z,1.93
2023-01-09T09:58:38.900Z,1.60
2023-01-09T10:01:11.591Z,1.83
2023-01-09T10:03:45.833Z,2.07
2023-01-09T10:06:31.977Z,1.53
2023-01-09T10:09:07.473Z,1.43
2023-01-09T10:11:44.155Z,2.40
2023-01-09T10:14:23.234Z,2.33
2023-01-09T10:17:13.305Z,2.03
2023-01-09T10:19:59.579Z,2.17
2023-01-09T10:22:40.558Z,1.67
2023-01-09T10:25:20.720Z,2.37
2023-01-09T10:28:03.741Z,2.73
2023-01-09T10:34:48.617Z,2.60
2023-01-09T10:37:19.901Z,1.70
2023-01-09T10:39:54.114Z,1.97
2023-01-09T10:42:30.845Z,2.47
2023-01-09T10:45:04.571Z,2.20
2023-01-09T10:47:35.793Z,2.30
2023-01-09T10:50:18.401Z,2.30
2023-01-09T10:52:51.012Z,1.80
2023-01-09T10:55:24.549Z,2.20
2023-01-09T10:57:59.449Z,2.10
2023-01-09T11:00:28.223Z,2.07
2023-01-09T11:02:56.775Z,2.27
2023-01-09T11:05:31.128Z,2.13
2023-01-09T11:08:05.603Z,2.30
2023-01-09T11:10:48.987Z,2.53
2023-01-09T11:13:22.037Z,2.17
2023-01-09T11:16:07.596Z,2.63
2023-01-09T11:18:39.815Z,2.20
2023-01-09T11:21:29.455Z,1.90
2023-01-09T11:23:58.190Z,2.53
2023-01-09T11:26:28.391Z,1.90
2023-01-09T11:29:08.905Z,2.13
2023-01-09T11:31:38.920Z,2.30
2023-01-09T11:34:08.832Z,2.17
2023-01-09T11:36:38.791Z,1.90
2023-01-09T11:39:07.392Z,2.40
2023-01-09T11:41:37.157Z,2.50
2023-01-09T11:44:06.582Z,2.13
2023-01-09T11:46:38.461Z,2.20
2023-01-09T11:49:22.785Z,2.67
2023-01-09T11:54:51.676Z,2.03
2023-01-09T11:57:21.348Z,2.67
2023-01-09T11:59:49.885Z,2.40
2023-01-09T12:02:46.744Z,1.87
2023-01-09T12:05:26.880Z,2.37
2023-01-09T12:08:08.919Z,3.40
2023-01-09T12:11:05.525Z,2.90
2023-01-09T12:13:46.953Z,2.43
2023-01-09T12:16:28.101Z,2.50
2023-01-09T12:19:16.476Z,2.57
2023-01-09T12:21:54.025Z,2.50
2023-01-09T12:24:42.408Z,2.10
2023-01-09T12:27:26.246Z,1.90
2023-01-09T12:30:10.186Z,2.43
2023-01-09T12:32:55.420Z,2.87
2023-01-09T12:35:34.876Z,2.00
2023-01-09T12:38:21.899Z,2.83
2023-01-09T12:41:08.236Z,2.43
2023-01-09T12:43:53.170Z,2.20
2023-01-09T12:46:24.332Z,2.47
2023-01-09T12:49:19.391Z,2.27
2023-01-09T12:51:51.545Z,2.50
2023-01-09T12:54:27.935Z,2.27
2023-01-09T12:57:02.346Z,2.20
2023-01-09T12:59:38.155Z,2.50
2023-01-09T13:02:15.533Z,3.00
2023-01-09T13:04:49.491Z,3.00
2023-01-09T13:07:24.220Z,2.93
2023-01-09T13:10:00.329Z,2.90
2023-01-09T13:12:34.131Z,2.77
2023-01-09T13:15:07.342Z,2.27
2023-01-09T13:17:41.901Z,3.60
2023-01-09T13:20:21.166Z,3.40
2023-01-09T13:22:52.658Z,3.77
2023-01-09T13:25:39.818Z,2.30
2023-01-09T13:28:14.199Z,2.30
2023-01-09T13:31:13.751Z,3.20
2023-01-09T13:33:46.114Z,2.37
2023-01-09T13:36:25.316Z,3.30
2023-01-09T13:38:56.039Z,3.00
2023-01-09T13:41:45.810Z,3.20
2023-01-09T13:44:28.825Z,3.30
2023-01-09T13:47:02.148Z,3.23
2023-01-09T13:49:46.826Z,3.57
2023-01-09T13:52:34.231Z,5.30
2023-01-09T13:55:25.225Z,3.17
2023-01-09T13:58:22.896Z,4.00
2023-01-09T14:01:00.899Z,3.37
2023-01-09T14:03:33.567Z,2.97
2023-01-09T14:06:20.634Z,2.50
2023-01-09T14:08:52.209Z,2.47
2023-01-09T14:11:23.295Z,2.33
2023-01-09T14:14:05.789Z,2.13
2023-01-09T14:16:36.854Z,2.53
2023-01-09T14:19:22.032Z,2.37
2023-01-09T14:21:54.094Z,2.80
2023-01-09T14:24:26.400Z,2.47
2023-01-09T14:26:57.973Z,2.50
2023-01-09T14:29:44.731Z,3.77
2023-01-09T14:32:39.253Z,2.70
2023-01-09T14:35:16.597Z,2.67
2023-01-09T14:37:50.807Z,2.97
2023-01-09T14:40:24.343Z,2.90
2023-01-09T14:42:55.681Z,2.93
2023-01-09T14:45:26.175Z,3.07
2023-01-09T14:47:57.902Z,2.90
2023-01-09T14:50:34.244Z,3.47
2023-01-09T14:53:07.397Z,3.70
2023-01-09T14:55:47.458Z,3.23
2023-01-09T14:58:22.840Z,3.10
2023-01-09T15:00:56.974Z,3.30
2023-01-09T15:03:29.598Z,3.53
2023-01-09T15:05:59.948Z,3.37
2023-01-09T15:08:30.472Z,3.90
2023-01-09T15:11:00.895Z,3.90
2023-01-09T15:13:36.461Z,3.83
2023-01-09T15:16:07.402Z,3.50
2023-01-09T15:18:43.225Z,3.90
2023-01-09T15:21:20.684Z,3.93
2023-01-09T15:23:49.348Z,4.17
2023-01-09T15:26:27.467Z,5.03
2023-01-09T15:29:02.900Z,4.03
2023-01-09T15:31:31.964Z,4.60
2023-01-09T15:34:00.566Z,4.70
2023-01-09T15:36:31.667Z,4.33
2023-01-09T15:39:01.557Z,4.47
2023-01-09T15:41:49.300Z,5.20
2023-01-09T15:44:22.676Z,5.27
2023-01-09T15:46:52.180Z,3.77
2023-01-09T15:49:21.049Z,4.00
2023-01-09T15:51:52.642Z,4.90
2023-01-09T15:54:28.723Z,4.00
2023-01-09T15:57:30.931Z,4.87
2023-01-09T16:00:33.779Z,5.50
2023-01-09T16:03:12.236Z,5.90
2023-01-09T16:05:42.000Z,4.80
2023-01-09T16:08:24.280Z,5.50
2023-01-09T16:10:54.968Z,5.43
2023-01-09T16:13:25.691Z,5.93
2023-01-09T16:15:55.153Z,8.30
2023-01-09T16:18:29.688Z,7.50
2023-01-09T16:21:22.195Z,7.10
2023-01-09T16:23:57.572Z,7.17
2023-01-09T16:26:29.053Z,8.07
2023-01-09T16:28:57.835Z,8.30
2023-01-09T16:31:29.202Z,7.80
2023-01-09T16:34:05.985Z,8.03
2023-01-09T16:36:36.423Z,9.03
2023-01-09T16:39:06.712Z,9.43
2023-01-09T16:41:52.354Z,7.50
2023-01-09T16:44:20.836Z,8.03
2023-01-09T16:46:49.530Z,9.07
2023-01-09T16:49:20.390Z,9.07
2023-01-09T16:51:49.663Z,20.67
2023-01-09T16:54:19.936Z,11.90
2023-01-09T16:56:50.715Z,10.90
2023-01-09T16:59:21.770Z,9.43
2023-01-09T17:01:50.148Z,9.97
2023-01-09T17:04:20.294Z,8.37
2023-01-09T17:06:50.060Z,7.57
2023-01-09T17:09:27.365Z,8.57
2023-01-09T17:11:56.155Z,8.73
2023-01-09T17:14:24.655Z,8.50
2023-01-09T17:16:53.161Z,8.40
2023-01-09T17:19:23.620Z,10.33
2023-01-09T17:21:52.111Z,9.63
2023-01-09T17:24:39.396Z,9.63
2023-01-09T17:27:28.663Z,9.03
2023-01-09T17:29:57.443Z,7.63
2023-01-09T17:32:26.140Z,7.93
2023-01-09T17:34:54.794Z,6.90
2023-01-09T17:37:23.498Z,7.33
2023-01-09T17:40:00.021Z,7.77
2023-01-09T17:42:28.627Z,8.80
2023-01-09T17:44:57.275Z,7.27
2023-01-09T17:47:25.876Z,8.57
2023-01-09T17:49:54.646Z,8.90
2023-01-09T17:52:25.422Z,8.67
2023-01-09T17:54:55.444Z,7.20
2023-01-09T17:57:24.015Z,7.60
2023-01-09T17:59:52.705Z,8.23
2023-01-09T18:02:21.508Z,9.07
2023-01-09T18:04:50.400Z,7.73
2023-01-09T18:07:19.384Z,8.47
2023-01-09T18:09:47.820Z,6.53
2023-01-09T18:12:17.790Z,6.80
2023-01-09T18:14:47.837Z,6.60
2023-01-09T18:17:16.722Z,6.93
2023-01-09T18:19:46.496Z,6.70
2023-01-09T18:22:15.135Z,7.73
2023-01-09T18:24:43.701Z,7.93
2023-01-09T18:27:12.269Z,7.57
2023-01-09T18:29:43.129Z,7.73
2023-01-09T18:32:11.690Z,8.03
2023-01-09T18:34:40.280Z,7.40
2023-01-09T18:37:08.929Z,7.97
2023-01-09T18:39:37.522Z,7.03
2023-01-09T18:42:06.261Z,7.53
2023-01-09T18:44:34.840Z,7.30
2023-01-09T18:47:04.843Z,8.53
2023-01-09T18:49:33.325Z,8.03
2023-01-09T18:52:01.946Z,7.60
2023-01-09T18:54:30.384Z,7.90
2023-01-09T18:56:58.958Z,7.90
2023-01-09T18:59:27.400Z,7.97
2023-01-09T19:01:55.939Z,8.97
2023-01-09T19:04:25.944Z,8.57
2023-01-09T19:06:56.278Z,9.13
2023-01-09T19:09:24.859Z,9.00
2023-01-09T19:11:53.488Z,8.00
2023-01-09T19:14:21.967Z,8.53
2023-01-09T19:16:50.643Z,8.33
2023-01-09T19:19:19.537Z,8.60
2023-01-09T19:21:49.316Z,8.13
2023-01-09T19:24:20.305Z,8.80
2023-01-09T19:26:49.663Z,8.60
2023-01-09T19:29:18.654Z,8.43
2023-01-09T19:31:48.771Z,8.10
2023-01-09T19:34:17.659Z,9.00
2023-01-09T19:36:47.771Z,8.33
2023-01-09T19:39:18.020Z,7.80
2023-01-09T19:41:46.689Z,9.13
2023-01-09T19:44:15.382Z,7.30
2023-01-09T19:46:43.744Z,8.27
2023-01-09T19:49:12.516Z,8.00
2023-01-09T19:51:42.745Z,8.03
2023-01-09T19:54:12.187Z,8.20
2023-01-09T19:56:45.260Z,8.47
2023-01-09T19:59:14.845Z,7.47
2023-01-09T20:01:44.061Z,6.93
2023-01-09T20:04:17.747Z,6.57
2023-01-09T20:06:48.606Z,7.00
2023-01-09T20:09:21.603Z,5.87
2023-01-09T20:11:51.596Z,5.83
2023-01-09T20:14:21.082Z,5.47
2023-01-09T20:16:54.210Z,6.93
2023-01-09T20:19:22.890Z,5.50
2023-01-09T20:21:51.364Z,5.07
2023-01-09T20:24:20.292Z,4.60
2023-01-09T20:26:50.184Z,4.80
2023-01-09T20:29:20.633Z,4.80
2023-01-09T20:31:49.360Z,4.47
2023-01-09T20:34:18.066Z,4.63
2023-01-09T20:36:47.527Z,4.90
2023-01-09T20:39:16.187Z,4.83
2023-01-09T20:41:44.737Z,5.17
2023-01-09T20:44:15.887Z,4.93
2023-01-09T20:46:48.469Z,4.40
2023-01-09T20:49:19.463Z,4.50
2023-01-09T20:51:50.199Z,4.97
2023-01-09T20:54:21.256Z,4.20
2023-01-09T20:56:50.083Z,4.43
2023-01-09T20:59:22.252Z,5.50
2023-01-09T21:01:52.485Z,4.43
2023-01-09T21:04:21.145Z,5.17
2023-01-09T21:06:50.445Z,4.70
2023-01-09T21:09:20.377Z,4.77
2023-01-09T21:11:49.077Z,5.90
2023-01-09T21:14:17.909Z,5.43
2023-01-09T21:16:54.224Z,4.80
2023-01-09T21:19:25.456Z,5.37
2023-01-09T21:21:54.075Z,5.90
2023-01-09T21:24:22.714Z,6.50
2023-01-09T21:26:51.349Z,6.47
2023-01-09T21:29:19.961Z,6.80
2023-01-09T21:31:48.754Z,6.93
2023-01-09T21:34:20.755Z,7.30
2023-01-09T21:36:51.722Z,7.83
2023-01-09T21:39:22.169Z,9.30
2023-01-09T21:42:13.607Z,8.47
2023-01-09T21:45:00.138Z,8.47
2023-01-09T21:47:28.639Z,8.77
2023-01-09T21:49:57.249Z,9.10
2023-01-09T21:52:27.231Z,11.20
2023-01-09T21:54:55.959Z,10.67
2023-01-09T21:57:24.515Z,9.33
2023-01-09T21:59:53.014Z,9.73
2023-01-09T22:02:21.445Z,9.40
2023-01-09T22:04:49.972Z,9.40
2023-01-09T22:07:19.295Z,10.37
2023-01-09T22:09:49.490Z,9.60
2023-01-09T22:12:18.069Z,9.23
2023-01-09T22:14:46.826Z,9.47
2023-01-09T22:17:15.379Z,9.40
2023-01-09T22:19:43.918Z,9.43
2023-01-09T22:22:12.336Z,8.30
2023-01-09T22:24:40.771Z,7.20
2023-01-09T22:27:10.708Z,7.53
2023-01-09T22:29:39.277Z,7.63
2023-01-09T22:32:07.951Z,7.10
2023-01-09T22:34:36.532Z,6.63
2023-01-09T22:37:05.114Z,6.70
2023-01-09T22:39:33.559Z,6.73
2023-01-09T22:42:01.998Z,7.43
2023-01-09T22:44:31.826Z,7.23
2023-01-09T22:47:00.573Z,5.73
2023-01-09T22:49:33.516Z,6.00
2023-01-09T22:52:09.657Z,6.13
2023-01-09T22:54:38.249Z,5.67
2023-01-09T22:57:06.611Z,7.40
2023-01-09T22:59:36.866Z,6.27
2023-01-09T23:02:05.553Z,5.83
2023-01-09T23:04:34.225Z,6.20
2023-01-09T23:07:02.794Z,5.67
2023-01-09T23:09:31.257Z,5.67
2023-01-09T23:12:06.215Z,5.67
2023-01-09T23:14:37.740Z,5.83
2023-01-09T23:17:07.940Z,5.93
2023-01-09T23:19:36.639Z,5.70
2023-01-09T23:22:06.040Z,5.83
2023-01-09T23:24:34.627Z,6.47
2023-01-09T23:27:03.119Z,6.23
2023-01-09T23:29:31.786Z,5.43
2023-01-09T23:32:01.498Z,5.63
2023-01-09T23:34:30.004Z,6.03
2023-01-09T23:36:58.477Z,5.10
2023-01-09T23:39:27.012Z,5.17
2023-01-09T23:42:13.270Z,5.20
2023-01-09T23:44:42.139Z,4.60
2023-01-09T23:47:12.033Z,4.90
2023-01-09T23:49:40.499Z,6.80
2023-01-09T23:52:09.151Z,4.47
2023-01-09T23:54:37.696Z,4.83
2023-01-09T23:57:06.225Z,4.57
2023-01-09T23:59:35.054Z,4.87
